createdAt,value
2022-10-22T00:00:19.030Z,98751.56
2022-10-22T00:03:05.460Z,98715.56
2022-10-22T00:05:51.827Z,98689.06
2022-10-22T00:08:38.551Z,98719.00
2022-10-22T00:11:34.255Z,98712.31
2022-10-22T00:14:21.049Z,98770.72
2022-10-22T00:17:11.201Z,98722.88
2022-10-22T00:19:58.167Z,98757.28
2022-10-22T00:22:44.679Z,98761.56
2022-10-22T00:25:31.693Z,98780.66
2022-10-22T00:28:18.297Z,98747.84
2022-10-22T00:31:04.948Z,98782.25
2022-10-22T00:33:51.534Z,98781.31
2022-10-22T00:36:37.771Z,98761.50
2022-10-22T00:39:25.929Z,98782.84
2022-10-22T00:42:19.322Z,98764.72
2022-10-22T00:45:12.068Z,98780.25
2022-10-22T00:48:07.198Z,98775.09
2022-10-22T00:51:00.854Z,98706.28
2022-10-22T00:53:50.870Z,98762.09
2022-10-22T00:56:38.094Z,98713.88
2022-10-22T00:59:24.474Z,98730.13
2022-10-22T01:02:10.741Z,98715.44
2022-10-22T01:04:56.899Z,98737.88
2022-10-22T01:07:47.807Z,98702.81
2022-10-22T01:11:08.047Z,98703.81
2022-10-22T01:14:35.934Z,98742.47
2022-10-22T01:17:37.498Z,98749.59
2022-10-22T01:20:48.377Z,98752.31
2022-10-22T01:24:11.958Z,98750.50
2022-10-22T01:27:16.751Z,98760.13
2022-10-22T01:30:06.896Z,98770.47
2022-10-22T01:32:59.364Z,98739.28
2022-10-22T01:35:46.183Z,98724.66
2022-10-22T01:38:33.874Z,98724.81
2022-10-22T01:41:20.379Z,98770.38
2022-10-22T01:44:06.583Z,98793.94
2022-10-22T01:47:05.471Z,98813.91
2022-10-22T01:50:04.350Z,98819.88
2022-10-22T01:53:12.553Z,98817.28
2022-10-22T01:56:01.999Z,98813.63
2022-10-22T01:59:14.648Z,98813.94
2022-10-22T02:02:13.173Z,98827.63
2022-10-22T02:05:13.994Z,98812.13
2022-10-22T02:08:05.745Z,98824.22
2022-10-22T02:10:53.528Z,98773.56
2022-10-22T02:13:44.460Z,98801.94
2022-10-22T02:16:36.302Z,98779.75
2022-10-22T02:19:27.322Z,98838.28
2022-10-22T02:22:13.848Z,98791.88
2022-10-22T02:25:00.618Z,98780.81
2022-10-22T02:28:00.213Z,98805.69
2022-10-22T02:30:54.759Z,98816.88
2022-10-22T02:33:47.254Z,98809.19
2022-10-22T02:36:34.750Z,98785.06
2022-10-22T02:39:21.805Z,98797.19
2022-10-22T02:42:12.081Z,98764.53
2022-10-22T02:44:58.467Z,98759.16
2022-10-22T02:47:45.191Z,98766.19
2022-10-22T02:50:31.453Z,98775.81
2022-10-22T02:53:17.870Z,98747.56
2022-10-22T02:56:04.396Z,98752.75
2022-10-22T02:58:50.984Z,98770.94
2022-10-22T03:01:37.225Z,98759.75
2022-10-22T03:04:23.519Z,98756.34
2022-10-22T03:07:09.611Z,98759.03
2022-10-22T03:09:56.038Z,98785.72
2022-10-22T03:12:42.203Z,98762.53
2022-10-22T03:18:14.864Z,98771.63
2022-10-22T03:21:28.991Z,98782.72
2022-10-22T03:24:22.458Z,98777.75
2022-10-22T03:27:09.606Z,98785.31
2022-10-22T03:29:57.087Z,98751.25
2022-10-22T03:32:43.405Z,98769.31
2022-10-22T03:35:31.499Z,98746.00
2022-10-22T03:38:17.940Z,98744.28
2022-10-22T03:41:04.915Z,98734.81
2022-10-22T03:43:53.108Z,98734.78
2022-10-22T03:46:39.621Z,98724.38
2022-10-22T03:49:25.730Z,98734.72
2022-10-22T03:52:14.698Z,98718.31
2022-10-22T03:55:00.873Z,98750.34
2022-10-22T03:57:46.982Z,98751.28
2022-10-22T04:00:35.054Z,98777.25
2022-10-22T04:03:21.394Z,98783.97
2022-10-22T04:06:13.085Z,98774.50
2022-10-22T04:08:59.733Z,98780.53
2022-10-22T04:11:45.971Z,98784.06
2022-10-22T04:14:32.760Z,98773.72
2022-10-22T04:17:18.796Z,98772.91
2022-10-22T04:20:06.345Z,98781.56
2022-10-22T04:22:52.539Z,98811.56
2022-10-22T04:25:38.901Z,98797.97
2022-10-22T04:28:25.405Z,98829.81
2022-10-22T04:31:14.599Z,98827.22
2022-10-22T04:34:01.478Z,98820.31
2022-10-22T04:36:47.658Z,98780.84
2022-10-22T04:39:33.802Z,98818.69
2022-10-22T04:42:19.863Z,98798.00
2022-10-22T04:45:06.658Z,98767.06
2022-10-22T04:47:53.206Z,98786.88
2022-10-22T04:50:39.366Z,98790.31
2022-10-22T04:53:29.178Z,98799.94
2022-10-22T04:56:21.887Z,98830.00
2022-10-22T04:59:10.474Z,98762.16
2022-10-22T05:01:57.141Z,98794.84
2022-10-22T05:04:44.355Z,98796.69
2022-10-22T05:07:30.833Z,98817.28
2022-10-22T05:10:17.254Z,98824.28
2022-10-22T05:13:03.399Z,98841.59
2022-10-22T05:15:49.516Z,98840.75
2022-10-22T05:18:37.662Z,98831.31
2022-10-22T05:21:24.118Z,98865.72
2022-10-22T05:24:10.433Z,98832.22
2022-10-22T05:26:58.304Z,98853.75
2022-10-22T05:29:44.446Z,98829.66
2022-10-22T05:32:30.715Z,98824.59
2022-10-22T05:35:17.067Z,98874.44
2022-10-22T05:38:03.194Z,98848.56
2022-10-22T05:40:59.813Z,98893.34
2022-10-22T05:43:46.186Z,98887.34
2022-10-22T05:46:35.256Z,98890.81
2022-10-22T05:49:21.563Z,98908.03
2022-10-22T05:52:07.660Z,98899.38
2022-10-22T05:54:53.995Z,98901.09
2022-10-22T05:57:40.675Z,98875.22
2022-10-22T06:00:27.184Z,98900.06
2022-10-22T06:03:13.390Z,98892.38
2022-10-22T06:06:01.729Z,98923.34
2022-10-22T06:08:49.991Z,98922.47
2022-10-22T06:11:36.897Z,98931.13
2022-10-22T06:14:24.109Z,98941.50
2022-10-22T06:17:12.105Z,98931.13
2022-10-22T06:19:58.508Z,98935.44
2022-10-22T06:22:44.870Z,98932.00
2022-10-22T06:25:31.427Z,98961.25
2022-10-22T06:28:17.901Z,98962.00
2022-10-22T06:31:04.875Z,98974.16
2022-10-22T06:33:51.133Z,98967.38
2022-10-22T06:36:37.910Z,98987.19
2022-10-22T06:39:24.271Z,98961.34
2022-10-22T06:42:10.754Z,98992.38
2022-10-22T06:44:59.322Z,98983.78
2022-10-22T06:47:46.668Z,98984.66
2022-10-22T06:50:36.838Z,99013.91
2022-10-22T06:53:23.341Z,99000.94
2022-10-22T06:56:15.709Z,99006.91
2022-10-22T06:59:01.986Z,99012.13
2022-10-22T07:01:48.359Z,99012.03
2022-10-22T07:04:34.555Z,99001.81
2022-10-22T07:07:20.998Z,99027.53
2022-10-22T07:10:08.188Z,99039.47
2022-10-22T07:12:54.407Z,99025.47
2022-10-22T07:15:41.078Z,99032.41
2022-10-22T07:18:27.594Z,99028.88
2022-10-22T07:21:15.994Z,99029.78
2022-10-22T07:24:02.559Z,99041.13
2022-10-22T07:26:49.102Z,99061.78
2022-10-22T07:29:35.258Z,99060.03
2022-10-22T07:32:23.796Z,99044.47
2022-10-22T07:35:10.649Z,98991.25
2022-10-22T07:37:56.867Z,99060.13
2022-10-22T07:40:43.454Z,99051.47
2022-10-22T07:43:29.578Z,99055.59
2022-10-22T07:46:15.725Z,98999.63
2022-10-22T07:49:02.223Z,99032.25
2022-10-22T07:51:48.426Z,99059.81
2022-10-22T07:54:34.672Z,99040.66
2022-10-22T07:57:20.914Z,99069.91
2022-10-22T08:00:09.319Z,99038.09
2022-10-22T08:02:58.263Z,99058.72
2022-10-22T08:05:44.966Z,99038.91
2022-10-22T08:08:31.901Z,99057.78
2022-10-22T08:11:18.218Z,99059.50
2022-10-22T08:14:04.596Z,99079.22
2022-10-22T08:16:50.670Z,99072.34
2022-10-22T08:19:37.592Z,99078.34
2022-10-22T08:22:24.193Z,99087.75
2022-10-22T08:25:11.479Z,99039.34
2022-10-22T08:27:58.051Z,99064.94
2022-10-22T08:30:46.314Z,99084.63
2022-10-22T08:33:32.576Z,99051.53
2022-10-22T08:36:18.834Z,99063.41
2022-10-22T08:39:05.290Z,99080.81
2022-10-22T08:42:13.817Z,99088.63
2022-10-22T08:45:12.629Z,99087.53
2022-10-22T08:48:09.313Z,99058.13
2022-10-22T08:50:57.802Z,99099.06
2022-10-22T08:54:17.019Z,99073.94
2022-10-22T09:00:15.361Z,99090.09
2022-10-22T09:03:19.986Z,99089.47
2022-10-22T09:06:21.887Z,99099.81
2022-10-22T09:09:16.739Z,99099.69
2022-10-22T09:12:04.872Z,99097.13
2022-10-22T09:14:51.904Z,99115.13
2022-10-22T09:17:56.673Z,99101.97
2022-10-22T09:21:17.868Z,99108.59
2022-10-22T09:24:06.053Z,99108.72
2022-10-22T09:26:52.793Z,99062.06
2022-10-22T09:29:39.643Z,99103.25
2022-10-22T09:32:26.246Z,99095.38
2022-10-22T09:35:14.050Z,99086.91
2022-10-22T09:38:07.735Z,99111.81
2022-10-22T09:40:56.150Z,99086.00
2022-10-22T09:43:42.689Z,99111.97
2022-10-22T09:46:39.655Z,99127.94
2022-10-22T09:49:32.936Z,99093.44
2022-10-22T09:52:27.665Z,99137.19
2022-10-22T09:55:17.318Z,99145.69
2022-10-22T09:58:04.630Z,99127.16
2022-10-22T10:01:00.208Z,99112.63
2022-10-22T10:03:48.404Z,99136.53
2022-10-22T10:06:35.502Z,99156.16
2022-10-22T10:09:24.631Z,99140.84
2022-10-22T10:12:26.306Z,99161.44
2022-10-22T10:15:12.731Z,99157.31
2022-10-22T10:18:08.653Z,99164.91
2022-10-22T10:24:15.084Z,99172.75
2022-10-22T10:27:14.075Z,99170.81
2022-10-22T10:30:11.413Z,99134.13
2022-10-22T10:33:39.532Z,99169.25
2022-10-22T10:36:54.033Z,99179.88
2022-10-22T10:40:19.000Z,99179.72
2022-10-22T10:43:42.772Z,99171.59
2022-10-22T10:46:46.438Z,99152.66
2022-10-22T10:49:36.774Z,99137.94
2022-10-22T10:52:41.742Z,99178.03
2022-10-22T10:55:33.697Z,99138.53
2022-10-22T10:58:38.125Z,99166.47
2022-10-22T11:01:29.908Z,99150.34
2022-10-22T11:04:45.407Z,99163.13
2022-10-22T11:07:41.646Z,99151.63
2022-10-22T11:10:33.772Z,99149.56
2022-10-22T11:13:42.692Z,99172.25
2022-10-22T11:16:54.741Z,99147.25
2022-10-22T11:19:55.603Z,99093.00
2022-10-22T11:23:36.513Z,99160.44
2022-10-22T11:26:50.622Z,99158.34
2022-10-22T11:29:46.163Z,99123.84
2022-10-22T11:32:33.401Z,99159.78
2022-10-22T11:35:29.019Z,99143.47
2022-10-22T11:38:20.236Z,99139.59
2022-10-22T11:41:13.738Z,99159.84
2022-10-22T11:44:21.432Z,99153.22
2022-10-22T11:47:35.762Z,99155.50
2022-10-22T11:50:52.898Z,99149.38
2022-10-22T11:53:39.420Z,99139.00
2022-10-22T11:56:27.118Z,99139.59
2022-10-22T11:59:39.627Z,99148.91
2022-10-22T12:02:28.831Z,99142.66
2022-10-22T12:05:24.446Z,99146.63
2022-10-22T12:08:14.857Z,99149.16
2022-10-22T12:11:21.955Z,99126.91
2022-10-22T12:14:19.862Z,99145.97
2022-10-22T12:17:15.657Z,99130.41
2022-10-22T12:20:13.286Z,99139.28
2022-10-22T12:22:59.991Z,99066.19
2022-10-22T12:25:46.465Z,99126.78
2022-10-22T12:28:40.823Z,99133.22
2022-10-22T12:31:28.680Z,99117.09
2022-10-22T12:34:21.761Z,99116.19
2022-10-22T12:37:10.741Z,99080.69
2022-10-22T12:39:56.906Z,99119.75
2022-10-22T12:43:42.027Z,99103.06
2022-10-22T12:46:31.358Z,99109.28
2022-10-22T12:49:21.759Z,99110.00
2022-10-22T12:52:14.683Z,99094.47
2022-10-22T12:55:00.978Z,99110.75
2022-10-22T12:57:48.819Z,99110.84
2022-10-22T13:00:36.519Z,99117.13
2022-10-22T13:04:02.490Z,99118.44
2022-10-22T13:07:03.968Z,99121.13
2022-10-22T13:09:58.659Z,99114.22
2022-10-22T13:12:51.026Z,99093.47
2022-10-22T13:15:39.611Z,99092.75
2022-10-22T13:18:33.191Z,99090.66
2022-10-22T13:21:35.109Z,99105.34
2022-10-22T13:24:24.025Z,99117.97
2022-10-22T13:27:10.590Z,99085.34
2022-10-22T13:30:01.019Z,99109.72
2022-10-22T13:32:56.960Z,99068.50
2022-10-22T13:35:43.516Z,99070.94
2022-10-22T13:38:30.727Z,99069.63
2022-10-22T13:41:24.480Z,99106.72
2022-10-22T13:44:11.023Z,99068.47
2022-10-22T13:46:57.258Z,99075.06
2022-10-22T13:49:44.350Z,99065.88
2022-10-22T13:52:41.374Z,99104.56
2022-10-22T13:55:30.614Z,99099.44
2022-10-22T13:58:20.233Z,99095.72
2022-10-22T14:01:18.370Z,99067.38
2022-10-22T14:04:08.016Z,99087.63
2022-10-22T14:06:56.714Z,99078.53
2022-10-22T14:09:45.101Z,99049.50
2022-10-22T14:12:31.777Z,99089.78
2022-10-22T14:15:20.220Z,99099.28
2022-10-22T14:18:08.041Z,99097.03
2022-10-22T14:20:58.073Z,99073.16
2022-10-22T14:23:46.869Z,99075.72
2022-10-22T14:26:34.919Z,99065.81
2022-10-22T14:29:21.225Z,99065.97
2022-10-22T14:32:16.149Z,99083.00
2022-10-22T14:35:02.655Z,99083.13
2022-10-22T14:37:49.025Z,99046.84
2022-10-22T14:40:35.614Z,99064.56
2022-10-22T14:43:28.040Z,99081.94
2022-10-22T14:46:15.882Z,99066.84
2022-10-22T14:49:02.806Z,99073.69
2022-10-22T14:51:49.344Z,99073.06
2022-10-22T14:54:35.873Z,99094.75
2022-10-22T14:57:22.090Z,99094.09
2022-10-22T15:00:17.191Z,99083.09
2022-10-22T15:03:04.475Z,99110.16
2022-10-22T15:05:53.760Z,99080.22
2022-10-22T15:08:40.015Z,99097.56
2022-10-22T15:11:26.889Z,99101.19
2022-10-22T15:14:13.239Z,99095.44
2022-10-22T15:16:59.953Z,99094.81
2022-10-22T15:19:46.644Z,99104.44
2022-10-22T15:22:35.202Z,99115.09
2022-10-22T15:25:23.075Z,99089.38
2022-10-22T15:28:10.170Z,99088.91
2022-10-22T15:30:59.243Z,99101.22
2022-10-22T15:33:45.559Z,99101.22
2022-10-22T15:36:31.794Z,99065.13
2022-10-22T15:39:18.236Z,99087.03
2022-10-22T15:42:04.918Z,99110.47
2022-10-22T15:44:58.122Z,99095.22
2022-10-22T15:47:47.503Z,99107.22
2022-10-22T15:50:38.266Z,99111.66
2022-10-22T15:53:24.606Z,99076.81
2022-10-22T15:56:11.977Z,99100.00
2022-10-22T15:59:02.613Z,99118.25
2022-10-22T16:01:49.239Z,99110.00
2022-10-22T16:04:35.715Z,99112.25
2022-10-22T16:07:23.980Z,99071.44
2022-10-22T16:10:12.837Z,99114.72
2022-10-22T16:12:58.866Z,99096.34
2022-10-22T16:15:45.389Z,99105.41
2022-10-22T16:18:32.003Z,99107.34
2022-10-22T16:21:20.331Z,99119.66
2022-10-22T16:24:08.246Z,99102.06
2022-10-22T16:26:55.214Z,99119.50
2022-10-22T16:29:41.937Z,99085.38
2022-10-22T16:32:28.302Z,99099.28
2022-10-22T16:35:14.498Z,99117.63
2022-10-22T16:38:00.608Z,99094.59
2022-10-22T16:40:46.760Z,99069.06
2022-10-22T16:43:33.011Z,99129.47
2022-10-22T16:46:20.587Z,99134.78
2022-10-22T16:49:07.741Z,99115.09
2022-10-22T16:51:53.965Z,99125.72
2022-10-22T16:54:40.526Z,99138.69
2022-10-22T16:57:27.287Z,99111.25
2022-10-22T17:00:14.389Z,99145.78
2022-10-22T17:03:00.894Z,99123.50
2022-10-22T17:05:46.979Z,99147.78
2022-10-22T17:08:37.524Z,99143.56
2022-10-22T17:11:24.541Z,99148.00
2022-10-22T17:14:10.815Z,99144.63
2022-10-22T17:16:56.994Z,99115.44
2022-10-22T17:19:43.500Z,99135.31
2022-10-22T17:22:29.647Z,99125.88
2022-10-22T17:25:21.981Z,99145.84
2022-10-22T17:28:09.409Z,99166.69
2022-10-22T17:31:06.982Z,99153.75
2022-10-22T17:33:55.651Z,99166.78
2022-10-22T17:36:42.913Z,99166.81
2022-10-22T17:39:29.245Z,99117.00
2022-10-22T17:42:15.552Z,99119.69
2022-10-22T17:45:02.008Z,99145.63
2022-10-22T17:47:48.217Z,99133.66
2022-10-22T17:50:34.767Z,99132.91
2022-10-22T17:53:20.940Z,99148.47
2022-10-22T17:56:10.130Z,99156.25
2022-10-22T17:58:56.822Z,99186.44
2022-10-22T18:01:47.568Z,99197.78
2022-10-22T18:04:34.259Z,99164.22
2022-10-22T18:07:21.048Z,99201.34
2022-10-22T18:10:07.844Z,99176.34
2022-10-22T18:12:54.281Z,99191.03
2022-10-22T18:15:40.896Z,99166.06
2022-10-22T18:18:27.404Z,99188.47
2022-10-22T18:21:15.536Z,99184.19
2022-10-22T18:24:01.855Z,99159.28
2022-10-22T18:26:48.737Z,99181.72
2022-10-22T18:29:35.713Z,99161.03
2022-10-22T18:32:22.419Z,99198.16
2022-10-22T18:35:08.784Z,99176.56
2022-10-22T18:37:55.358Z,99152.47
2022-10-22T18:40:46.627Z,99194.72
2022-10-22T18:43:34.240Z,99140.41
2022-10-22T18:46:20.783Z,99155.97
2022-10-22T18:49:07.700Z,99185.28
2022-10-22T18:51:54.323Z,99176.69
2022-10-22T18:54:40.345Z,99159.47
2022-10-22T18:57:26.905Z,99177.59
2022-10-22T19:00:14.016Z,99139.69
2022-10-22T19:03:00.422Z,99140.56
2022-10-22T19:05:49.906Z,99171.59
2022-10-22T19:08:37.275Z,99168.16
2022-10-22T19:11:24.050Z,99144.03
2022-10-22T19:14:10.472Z,99162.16
2022-10-22T19:16:57.013Z,99162.19
2022-10-22T19:19:44.558Z,99159.59
2022-10-22T19:22:31.697Z,99157.03
2022-10-22T19:25:18.971Z,99178.63
2022-10-22T19:28:05.443Z,99180.34
2022-10-22T19:30:51.588Z,99168.31
2022-10-22T19:33:38.915Z,99196.75
2022-10-22T19:36:30.218Z,99160.53
2022-10-22T19:39:17.403Z,99188.13
2022-10-22T19:42:04.227Z,99153.63
2022-10-22T19:44:50.661Z,99177.72
2022-10-22T19:47:37.017Z,99175.13
2022-10-22T19:50:23.486Z,99170.03
2022-10-22T19:53:09.949Z,99153.66
2022-10-22T19:55:58.466Z,99169.16
2022-10-22T19:58:45.175Z,99172.59
2022-10-22T20:01:32.098Z,99145.03
2022-10-22T20:04:19.330Z,99139.84
2022-10-22T20:07:06.038Z,99146.75
2022-10-22T20:09:52.446Z,99180.34
2022-10-22T20:12:38.749Z,99184.72
2022-10-22T20:15:25.484Z,99167.44
2022-10-22T20:18:11.699Z,99180.41
2022-10-22T20:20:57.892Z,99173.50
2022-10-22T20:23:44.955Z,99180.34
2022-10-22T20:26:31.667Z,99173.44
2022-10-22T20:29:19.038Z,99176.06
2022-10-22T20:32:06.761Z,99139.00
2022-10-22T20:34:55.040Z,99166.63
2022-10-22T20:37:41.580Z,99187.34
2022-10-22T20:40:30.373Z,99196.84
2022-10-22T20:43:16.709Z,99164.91
2022-10-22T20:46:04.122Z,99202.88
2022-10-22T20:48:53.004Z,99204.59
2022-10-22T20:51:39.438Z,99195.13
2022-10-22T20:54:25.815Z,99199.41
2022-10-22T20:57:13.351Z,99177.00
2022-10-22T20:59:59.934Z,99181.28
2022-10-22T21:02:46.478Z,99157.16
2022-10-22T21:05:32.800Z,99176.13
2022-10-22T21:08:19.051Z,99171.81
2022-10-22T21:11:05.692Z,99160.59
2022-10-22T21:13:51.997Z,99180.44
2022-10-22T21:16:43.291Z,99170.06
2022-10-22T21:19:31.158Z,99185.59
2022-10-22T21:22:17.630Z,99185.56
2022-10-22T21:25:04.081Z,99180.44
2022-10-22T21:27:50.339Z,99179.53
2022-10-22T21:30:36.782Z,99175.22
2022-10-22T21:33:22.937Z,99183.81
2022-10-22T21:36:09.262Z,99157.94
2022-10-22T21:38:55.549Z,99174.34
2022-10-22T21:41:41.785Z,99176.94
2022-10-22T21:44:28.110Z,99168.28
2022-10-22T21:47:14.307Z,99163.97
2022-10-22T21:50:00.864Z,99165.72
2022-10-22T21:52:47.449Z,99182.94
2022-10-22T21:55:38.613Z,99165.72
2022-10-22T21:58:24.864Z,99161.38
2022-10-22T22:01:12.419Z,99177.78
2022-10-22T22:03:59.103Z,99152.78
2022-10-22T22:06:45.648Z,99133.78
2022-10-22T22:09:32.169Z,99145.84
2022-10-22T22:12:20.415Z,99181.22
2022-10-22T22:15:07.789Z,99188.06
2022-10-22T22:17:54.175Z,99187.22
2022-10-22T22:20:40.605Z,99169.94
2022-10-22T22:23:26.967Z,99163.91
2022-10-22T22:26:16.673Z,99191.50
2022-10-22T22:29:03.741Z,99189.81
2022-10-22T22:31:50.119Z,99171.72
2022-10-22T22:34:37.453Z,99186.34
2022-10-22T22:37:23.735Z,99123.31
2022-10-22T22:40:10.569Z,99140.56
2022-10-22T22:42:56.962Z,99152.66
2022-10-22T22:45:43.608Z,99176.81
2022-10-22T22:48:30.275Z,99162.16
2022-10-22T22:51:17.529Z,99125.03
2022-10-22T22:54:03.917Z,99149.22
2022-10-22T22:56:50.221Z,99138.84
2022-10-22T22:59:36.767Z,99150.91
2022-10-22T23:02:23.275Z,99173.28
2022-10-22T23:05:09.856Z,99150.00
2022-10-22T23:07:57.189Z,99138.78
2022-10-22T23:10:43.641Z,99154.34
2022-10-22T23:13:29.889Z,99119.81
2022-10-22T23:16:21.255Z,99149.13
2022-10-22T23:19:08.065Z,99143.13
2022-10-22T23:21:55.806Z,99151.75
2022-10-22T23:24:42.226Z,99111.19
2022-10-22T23:27:28.546Z,99105.97
2022-10-22T23:30:15.263Z,99101.66
2022-10-22T23:33:01.490Z,99118.91
2022-10-22T23:35:47.714Z,99100.75
2022-10-22T23:38:35.287Z,99137.03
2022-10-22T23:41:21.715Z,99152.53
2022-10-22T23:44:09.160Z,99148.19
2022-10-22T23:46:55.701Z,99105.03
2022-10-22T23:49:41.981Z,99134.38
2022-10-22T23:52:28.545Z,99115.34
2022-10-22T23:55:15.179Z,99109.38
2022-10-22T23:58:01.306Z,99124.88
